Time;durP1;ratioP1;P1;durP2;ratioP2;P2;SDS_P1;SDS_P2;PMS_P1;PMS_P2;Temp;Humidity;BMP_temperature;BMP_pressure;BME280_temperature;BME280_humidity;BME280_pressure;Samples;Min_cycle;Max_cycle;Signal;HPM_P1;HPM_P2
2022/11/13 00:02:36;;;;;;;;;;;;;;;12.00;53.60;101205.75;4485255;32;34756;-65
2022/11/13 00:05:22;;;;;;;;;;;;;;;11.99;53.56;101193.28;4466631;32;32809;-64
2022/11/13 00:08:08;;;;;;;;;;;;;;;11.99;53.39;101194.16;4471104;32;33410;-65
2022/11/13 00:11:00;;;;;;;;;;;;;;;11.95;53.56;101192.63;4476055;32;34220;-66
2022/11/13 00:13:46;;;;;;;;;;;;;;;11.55;55.26;101200.19;4469127;32;34377;-66
2022/11/13 00:16:32;;;;;;;;;;;;;;;11.63;55.18;101197.09;4470581;32;33943;-64
2022/11/13 00:19:18;;;;;;;;;;;;;;;11.68;54.57;101199.50;4459312;32;34202;-63
2022/11/13 00:22:04;;;;;;;;;;;;;;;11.65;54.80;101198.75;4471951;32;33184;-62
2022/11/13 00:24:50;;;;;;;;;;;;;;;11.66;54.15;101194.25;4477134;32;33968;-63
2022/11/13 00:27:36;;;;;;;;;;;;;;;11.59;54.05;101199.09;4470852;31;35362;-63
2022/11/13 00:30:22;;;;;;;;;;;;;;;11.43;54.68;101208.94;4468166;31;35334;-63
2022/11/13 00:33:07;;;;;;;;;;;;;;;11.27;55.26;101211.59;4472484;32;33422;-63
2022/11/13 00:35:53;;;;;;;;;;;;;;;11.24;55.61;101197.47;4468756;32;34268;-63
2022/11/13 00:38:39;;;;;;;;;;;;;;;11.54;54.63;101200.28;4469410;32;33778;-63
2022/11/13 00:41:25;;;;;;;;;;;;;;;11.50;54.28;101206.78;4472274;32;33019;-64
2022/11/13 00:44:10;;;;;;;;;;;;;;;11.46;54.82;101202.50;4469507;32;33877;-63
2022/11/13 00:46:56;;;;;;;;;;;;;;;11.57;54.07;101210.84;4469202;32;32313;-64
2022/11/13 00:49:42;;;;;;;;;;;;;;;11.34;54.87;101202.25;4469127;32;35058;-65
2022/11/13 00:52:27;;;;;;;;;;;;;;;11.30;55.31;101199.81;4469230;32;33932;-65
2022/11/13 00:55:13;;;;;;;;;;;;;;;11.21;55.84;101201.19;4473942;32;33463;-64
2022/11/13 00:57:59;;;;;;;;;;;;;;;11.35;55.24;101195.94;4473657;32;34475;-64
2022/11/13 01:00:45;;;;;;;;;;;;;;;11.37;54.82;101203.91;4479274;32;34086;-64
2022/11/13 01:03:31;;;;;;;;;;;;;;;11.13;55.21;101198.03;4480901;31;34397;-64
2022/11/13 01:06:18;;;;;;;;;;;;;;;11.29;54.48;101193.59;4473744;31;31668;-65
2022/11/13 01:09:04;;;;;;;;;;;;;;;11.25;54.00;101194.72;4479672;32;34001;-63
2022/11/13 01:11:49;;;;;;;;;;;;;;;10.94;54.62;101199.03;4478561;32;34296;-64
2022/11/13 01:14:35;;;;;;;;;;;;;;;10.84;55.46;101191.56;4479160;32;34411;-63
2022/11/13 01:17:21;;;;;;;;;;;;;;;11.09;54.83;101185.78;4470425;32;32685;-63
2022/11/13 01:20:07;;;;;;;;;;;;;;;11.05;55.04;101192.25;4471464;32;32437;-63
2022/11/13 01:22:52;;;;;;;;;;;;;;;11.16;54.49;101190.69;4466288;32;35147;-63
2022/11/13 01:25:38;;;;;;;;;;;;;;;11.12;54.59;101182.94;4475699;32;34286;-64
2022/11/13 01:28:24;;;;;;;;;;;;;;;11.32;53.78;101177.34;4467028;32;33896;-63
2022/11/13 01:31:14;;;;;;;;;;;;;;;11.35;53.40;101176.31;4473934;32;34251;-63
2022/11/13 01:33:59;;;;;;;;;;;;;;;11.29;54.07;101173.97;4467421;32;33078;-63
2022/11/13 01:36:45;;;;;;;;;;;;;;;11.34;54.14;101167.41;4481063;32;32733;-64
2022/11/13 01:39:31;;;;;;;;;;;;;;;11.28;54.35;101167.75;4467375;32;33932;-63
2022/11/13 01:42:17;;;;;;;;;;;;;;;11.28;54.29;101169.56;4471263;32;33999;-62
2022/11/13 01:45:03;;;;;;;;;;;;;;;11.11;55.30;101170.50;4466433;32;34264;-63
2022/11/13 01:47:48;;;;;;;;;;;;;;;11.34;54.07;101171.91;4467405;32;34134;-66
2022/11/13 01:50:34;;;;;;;;;;;;;;;11.26;54.13;101161.59;4455714;32;33497;-64
2022/11/13 01:53:20;;;;;;;;;;;;;;;11.30;53.72;101170.31;4471356;32;34404;-63
2022/11/13 01:56:06;;;;;;;;;;;;;;;11.00;54.83;101167.50;4461555;32;34448;-63
2022/11/13 01:58:54;;;;;;;;;;;;;;;10.96;55.64;101148.91;4467154;32;33714;-63
2022/11/13 02:01:40;;;;;;;;;;;;;;;11.15;54.91;101153.28;4463327;32;34077;-64
2022/11/13 02:04:26;;;;;;;;;;;;;;;11.01;55.00;101147.78;4463573;32;33719;-63
2022/11/13 02:07:15;;;;;;;;;;;;;;;11.01;54.66;101143.34;4466951;32;34122;-63
2022/11/13 02:10:01;;;;;;;;;;;;;;;10.65;55.99;101146.16;4464337;32;33728;-66
2022/11/13 02:12:50;;;;;;;;;;;;;;;10.68;56.32;101138.81;4468933;32;33571;-63
2022/11/13 02:15:36;;;;;;;;;;;;;;;10.71;56.03;101135.09;4471334;32;35167;-63
2022/11/13 02:18:21;;;;;;;;;;;;;;;10.38;57.38;101138.63;4477226;32;34460;-64
2022/11/13 02:21:10;;;;;;;;;;;;;;;10.60;56.74;101140.19;4457441;32;34377;-64
2022/11/13 02:24:01;;;;;;;;;;;;;;;10.53;57.35;101139.66;4454041;32;33187;-63
2022/11/13 02:26:48;;;;;;;;;;;;;;;10.55;57.88;101140.41;4459850;32;34673;-64
2022/11/13 02:29:33;;;;;;;;;;;;;;;10.71;57.44;101137.78;4456503;32;34118;-67
2022/11/13 02:32:20;;;;;;;;;;;;;;;10.54;57.96;101138.69;4472213;32;34322;-64
2022/11/13 02:35:06;;;;;;;;;;;;;;;10.68;56.52;101128.09;4467785;32;32187;-63
2022/11/13 02:37:51;;;;;;;;;;;;;;;10.63;57.08;101123.97;4465315;32;35027;-66
2022/11/13 02:40:38;;;;;;;;;;;;;;;10.47;57.48;101124.75;4482243;32;33071;-66
2022/11/13 02:43:24;;;;;;;;;;;;;;;10.59;57.13;101125.91;4481967;32;34185;-64
2022/11/13 02:46:10;;;;;;;;;;;;;;;10.63;56.79;101121.28;4479978;32;33565;-64
2022/11/13 02:48:55;;;;;;;;;;;;;;;10.61;57.00;101128.53;4466464;32;34060;-63
2022/11/13 02:51:41;;;;;;;;;;;;;;;10.65;56.82;101117.56;4471473;32;35286;-63
2022/11/13 02:54:27;;;;;;;;;;;;;;;10.56;57.03;101114.50;4467663;32;33755;-63
2022/11/13 02:57:12;;;;;;;;;;;;;;;10.72;56.24;101124.34;4477467;32;33214;-65
2022/11/13 02:59:58;;;;;;;;;;;;;;;10.85;55.74;101131.69;4471403;32;33866;-65
2022/11/13 03:02:44;;;;;;;;;;;;;;;10.96;55.58;101130.16;4475501;32;32763;-64
2022/11/13 03:05:30;;;;;;;;;;;;;;;10.77;55.97;101133.94;4469722;32;33896;-66
2022/11/13 03:08:16;;;;;;;;;;;;;;;10.85;55.46;101131.69;4470622;32;33556;-65
2022/11/13 03:11:05;;;;;;;;;;;;;;;10.76;55.92;101134.87;4461289;32;33678;-64
2022/11/13 03:13:51;;;;;;;;;;;;;;;10.57;56.59;101130.50;4465188;32;34075;-65
2022/11/13 03:16:37;;;;;;;;;;;;;;;10.52;56.63;101139.72;4474101;32;33745;-65
2022/11/13 03:19:23;;;;;;;;;;;;;;;10.75;55.70;101136.66;4476627;32;33851;-64
2022/11/13 03:22:09;;;;;;;;;;;;;;;10.70;55.96;101130.72;4468873;32;34042;-63
2022/11/13 03:24:54;;;;;;;;;;;;;;;10.70;55.75;101138.75;4475245;32;34241;-65
2022/11/13 03:27:40;;;;;;;;;;;;;;;10.69;55.74;101134.34;4465710;32;34722;-65
2022/11/13 03:30:26;;;;;;;;;;;;;;;10.40;56.57;101135.84;4470263;32;33287;-64
2022/11/13 03:33:12;;;;;;;;;;;;;;;10.69;55.22;101132.53;4480302;32;34230;-63
2022/11/13 03:35:58;;;;;;;;;;;;;;;10.88;54.42;101127.06;4472856;32;33969;-65
2022/11/13 03:38:43;;;;;;;;;;;;;;;10.85;54.23;101132.56;4475788;32;34176;-64
2022/11/13 03:41:29;;;;;;;;;;;;;;;10.95;53.94;101136.47;4477455;32;33538;-63
2022/11/13 03:44:15;;;;;;;;;;;;;;;10.98;53.93;101134.56;4466694;32;33805;-62
2022/11/13 03:47:01;;;;;;;;;;;;;;;10.99;53.83;101134.50;4467906;32;34432;-63
2022/11/13 03:49:46;;;;;;;;;;;;;;;11.00;53.91;101138.03;4465888;32;35423;-63
2022/11/13 03:52:32;;;;;;;;;;;;;;;10.87;53.93;101130.66;4466024;32;34514;-65
2022/11/13 03:55:18;;;;;;;;;;;;;;;11.03;53.43;101128.00;4466159;32;34796;-66
2022/11/13 03:58:04;;;;;;;;;;;;;;;11.01;53.18;101126.38;4476217;32;34241;-65
2022/11/13 04:00:50;;;;;;;;;;;;;;;10.83;53.88;101121.06;4477281;32;33522;-66
2022/11/13 04:03:35;;;;;;;;;;;;;;;10.94;52.93;101133.88;4468951;32;33814;-64
2022/11/13 04:06:21;;;;;;;;;;;;;;;11.13;51.73;101131.91;4477011;32;34980;-63
2022/11/13 04:09:07;;;;;;;;;;;;;;;10.91;52.18;101124.22;4469208;32;32907;-66
2022/11/13 04:11:52;;;;;;;;;;;;;;;10.44;53.37;101129.41;4475435;32;34312;-66
2022/11/13 04:14:38;;;;;;;;;;;;;;;10.62;52.64;101125.75;4481104;32;34915;-66
2022/11/13 04:17:24;;;;;;;;;;;;;;;10.56;53.00;101130.56;4476149;32;35228;-63
2022/11/13 04:20:10;;;;;;;;;;;;;;;10.53;53.07;101128.03;4481331;32;34585;-65
2022/11/13 04:22:55;;;;;;;;;;;;;;;10.47;53.12;101124.75;4465901;32;35485;-64
2022/11/13 04:25:41;;;;;;;;;;;;;;;10.46;52.92;101123.03;4473525;32;34209;-64
2022/11/13 04:28:27;;;;;;;;;;;;;;;10.42;53.02;101129.47;4473980;32;34191;-64
2022/11/13 04:31:13;;;;;;;;;;;;;;;10.38;53.13;101127.06;4468114;32;35214;-66
2022/11/13 04:33:59;;;;;;;;;;;;;;;10.44;53.32;101129.41;4465716;32;34147;-64
2022/11/13 04:36:45;;;;;;;;;;;;;;;10.41;53.19;101127.75;4466631;32;33337;-64
2022/11/13 04:39:31;;;;;;;;;;;;;;;10.21;54.12;101131.44;4469131;32;34925;-64
2022/11/13 04:45:21;;;;;;;;;;;;;;;10.18;54.68;101136.09;4477000;32;34966;-63
2022/11/13 04:48:07;;;;;;;;;;;;;;;10.11;55.30;101134.63;4477328;32;33297;-63
2022/11/13 04:50:53;;;;;;;;;;;;;;;10.13;55.38;101130.09;4470016;32;35231;-64
2022/11/13 04:53:38;;;;;;;;;;;;;;;10.12;56.15;101121.19;4466311;32;34520;-66
2022/11/13 04:56:24;;;;;;;;;;;;;;;10.31;55.63;101126.50;4466632;32;32996;-64
2022/11/13 04:59:10;;;;;;;;;;;;;;;10.40;55.15;101123.34;4475824;32;32053;-64
2022/11/13 05:01:55;;;;;;;;;;;;;;;10.41;55.24;101117.06;4476316;32;34058;-65
2022/11/13 05:04:41;;;;;;;;;;;;;;;10.40;55.86;101117.12;4470753;32;34778;-66
2022/11/13 05:07:28;;;;;;;;;;;;;;;10.37;55.76;101119.94;4476581;32;34967;-64
2022/11/13 05:10:14;;;;;;;;;;;;;;;10.38;55.14;101124.38;4466953;32;33983;-66
2022/11/13 05:13:00;;;;;;;;;;;;;;;10.17;56.27;101124.50;4470970;32;34210;-63
2022/11/13 05:15:45;;;;;;;;;;;;;;;10.10;56.94;101123.06;4467334;32;34161;-61
2022/11/13 05:18:31;;;;;;;;;;;;;;;10.35;55.81;101119.19;4465655;32;35458;-63
2022/11/13 05:21:17;;;;;;;;;;;;;;;10.38;56.32;101119.88;4466219;32;33643;-62
2022/11/13 05:24:03;;;;;;;;;;;;;;;10.42;56.16;101117.91;4471130;32;33925;-62
2022/11/13 05:26:49;;;;;;;;;;;;;;;10.42;56.86;101115.22;4466303;32;34942;-63
2022/11/13 05:29:34;;;;;;;;;;;;;;;10.41;56.17;101111.69;4465810;32;34297;-63
2022/11/13 05:32:20;;;;;;;;;;;;;;;10.54;55.92;101127.12;4471000;32;34144;-62
2022/11/13 05:35:06;;;;;;;;;;;;;;;10.45;56.38;101128.47;4471345;32;34746;-63
2022/11/13 05:37:51;;;;;;;;;;;;;;;10.22;58.24;101118.91;4475556;32;35299;-63
2022/11/13 05:40:37;;;;;;;;;;;;;;;10.51;57.81;101116.56;4480626;32;33829;-61
2022/11/13 05:43:23;;;;;;;;;;;;;;;10.69;56.64;101120.97;4465325;32;33285;-63
2022/11/13 05:46:12;;;;;;;;;;;;;;;10.76;56.00;101122.34;4473100;32;34443;-63
2022/11/13 05:48:59;;;;;;;;;;;;;;;10.44;56.99;101110.69;4472487;32;34019;-62
2022/11/13 05:51:45;;;;;;;;;;;;;;;10.72;56.47;101105.59;4474423;32;35155;-63
2022/11/13 05:54:30;;;;;;;;;;;;;;;10.77;55.71;101110.69;4465991;32;32239;-63
2022/11/13 05:57:16;;;;;;;;;;;;;;;10.78;55.67;101112.41;4466410;32;33804;-63
2022/11/13 06:00:03;;;;;;;;;;;;;;;10.77;55.16;101107.16;4470183;32;34053;-64
2022/11/13 06:02:48;;;;;;;;;;;;;;;10.77;55.78;101099.13;4467498;32;34289;-62
2022/11/13 06:05:34;;;;;;;;;;;;;;;10.74;56.00;101100.12;4468547;32;33209;-64
2022/11/13 06:08:20;;;;;;;;;;;;;;;10.85;55.01;101104.91;4468308;32;32733;-62
2022/11/13 06:11:07;;;;;;;;;;;;;;;10.83;54.91;101112.19;4473352;32;32813;-63
2022/11/13 06:13:53;;;;;;;;;;;;;;;10.85;54.90;101105.78;4471018;32;35416;-62
2022/11/13 06:16:39;;;;;;;;;;;;;;;10.88;54.20;101102.94;4473724;32;34001;-63
2022/11/13 06:19:25;;;;;;;;;;;;;;;10.71;54.16;101111.00;4477774;32;35691;-64
2022/11/13 06:22:11;;;;;;;;;;;;;;;10.63;54.59;101107.91;4481985;32;35481;-64
2022/11/13 06:24:56;;;;;;;;;;;;;;;10.64;54.95;101106.94;4454913;32;33145;-62
2022/11/13 06:27:42;;;;;;;;;;;;;;;10.54;55.61;101109.25;4466552;32;33501;-62
2022/11/13 06:30:27;;;;;;;;;;;;;;;10.45;56.32;101115.94;4464800;32;32829;-61
2022/11/13 06:33:13;;;;;;;;;;;;;;;10.82;55.46;101121.13;4467787;32;34218;-61
2022/11/13 06:36:03;;;;;;;;;;;;;;;10.91;54.53;101116.19;4476337;32;34854;-61
2022/11/13 06:38:48;;;;;;;;;;;;;;;10.68;56.06;101109.34;4466961;32;34130;-62
2022/11/13 06:41:36;;;;;;;;;;;;;;;11.04;55.21;101118.16;4473713;32;32457;-61
2022/11/13 06:44:22;;;;;;;;;;;;;;;11.00;55.28;101113.94;4467761;32;32912;-62
2022/11/13 06:47:08;;;;;;;;;;;;;;;11.13;54.80;101114.97;4467564;32;34088;-62
2022/11/13 06:49:54;;;;;;;;;;;;;;;11.17;55.05;101114.75;4469088;32;31891;-64
2022/11/13 06:52:39;;;;;;;;;;;;;;;11.10;55.74;101117.81;4466155;32;33446;-62
2022/11/13 06:55:25;;;;;;;;;;;;;;;11.29;55.39;101125.72;4467902;32;34039;-62
2022/11/13 06:58:11;;;;;;;;;;;;;;;11.23;55.95;101126.91;4469059;32;34069;-62
2022/11/13 07:00:57;;;;;;;;;;;;;;;11.28;55.91;101130.22;4473308;32;32051;-61
2022/11/13 07:03:43;;;;;;;;;;;;;;;11.49;55.65;101132.63;4470269;32;35717;-62
2022/11/13 07:06:29;;;;;;;;;;;;;;;11.48;55.17;101139.81;4467676;32;34016;-62
2022/11/13 07:09:14;;;;;;;;;;;;;;;11.75;53.89;101137.41;4466769;32;33980;-63
2022/11/13 07:12:00;;;;;;;;;;;;;;;11.87;53.44;101134.00;4475786;32;33388;-63
2022/11/13 07:14:46;;;;;;;;;;;;;;;11.93;53.19;101135.47;4478166;32;33901;-62
2022/11/13 07:17:31;;;;;;;;;;;;;;;11.98;53.42;101140.59;4479560;32;35536;-62
2022/11/13 07:20:17;;;;;;;;;;;;;;;12.03;54.23;101138.50;4481067;32;35231;-62
2022/11/13 07:23:03;;;;;;;;;;;;;;;12.21;53.54;101141.91;4470406;32;32084;-62
2022/11/13 07:25:51;;;;;;;;;;;;;;;12.13;54.28;101139.66;4466788;32;34100;-62
2022/11/13 07:28:37;;;;;;;;;;;;;;;12.00;55.42;101135.97;4469289;32;35072;-63
2022/11/13 07:31:23;;;;;;;;;;;;;;;12.26;54.27;101134.44;4478434;32;35139;-63
2022/11/13 07:34:09;;;;;;;;;;;;;;;12.24;54.98;101134.53;4470061;32;33522;-63
2022/11/13 07:36:54;;;;;;;;;;;;;;;12.46;54.46;101130.56;4477922;32;34232;-62
2022/11/13 07:39:40;;;;;;;;;;;;;;;12.67;53.95;101131.94;4464999;32;34255;-61
2022/11/13 07:42:26;;;;;;;;;;;;;;;12.77;53.65;101141.16;4473182;32;33304;-62
2022/11/13 07:45:11;;;;;;;;;;;;;;;12.57;54.07;101137.00;4479928;32;34487;-61
2022/11/13 07:47:58;;;;;;;;;;;;;;;12.93;52.80;101140.19;4468505;32;33013;-62
2022/11/13 07:50:43;;;;;;;;;;;;;;;13.08;52.93;101150.00;4466755;32;35360;-61
2022/11/13 07:53:29;;;;;;;;;;;;;;;13.00;53.15;101141.53;4468516;32;33632;-61
2022/11/13 07:56:15;;;;;;;;;;;;;;;13.14;53.34;101138.00;4465494;32;34388;-62
2022/11/13 07:59:07;;;;;;;;;;;;;;;13.04;53.34;101145.78;4479268;32;33966;-61
2022/11/13 08:01:53;;;;;;;;;;;;;;;13.32;52.85;101142.22;4473231;32;33980;-61
2022/11/13 08:04:38;;;;;;;;;;;;;;;13.45;52.63;101142.28;4472376;32;35449;-62
2022/11/13 08:07:24;;;;;;;;;;;;;;;13.49;52.79;101131.25;4479082;32;34239;-62
2022/11/13 08:10:10;;;;;;;;;;;;;;;13.65;52.76;101139.19;4466597;32;35090;-62
2022/11/13 08:13:00;;;;;;;;;;;;;;;13.66;52.48;101130.16;4471904;32;36064;-62
2022/11/13 08:15:46;;;;;;;;;;;;;;;13.50;53.53;101132.09;4479506;32;32806;-63
2022/11/13 08:18:32;;;;;;;;;;;;;;;13.48;53.63;101136.72;4479975;32;32382;-63
2022/11/13 08:21:19;;;;;;;;;;;;;;;13.65;53.84;101138.34;4481215;32;34429;-64
2022/11/13 08:24:05;;;;;;;;;;;;;;;13.80;53.51;101136.44;4468717;32;34184;-63
2022/11/13 08:26:51;;;;;;;;;;;;;;;14.17;52.83;101129.47;4469614;32;33648;-62
2022/11/13 08:29:37;;;;;;;;;;;;;;;13.83;53.78;101136.22;4479376;32;34027;-62
2022/11/13 08:32:22;;;;;;;;;;;;;;;14.21;52.86;101134.53;4477684;32;33742;-63
2022/11/13 08:35:08;;;;;;;;;;;;;;;14.42;51.91;101134.03;4472003;32;34049;-61
2022/11/13 08:37:54;;;;;;;;;;;;;;;14.59;52.21;101135.59;4465822;32;34641;-62
2022/11/13 08:40:39;;;;;;;;;;;;;;;14.84;51.37;101127.53;4466645;32;33505;-63
2022/11/13 08:43:26;;;;;;;;;;;;;;;14.64;52.72;101118.16;4466427;32;34338;-64
2022/11/13 08:46:11;;;;;;;;;;;;;;;15.01;51.49;101120.91;4466841;32;34429;-61
2022/11/13 08:48:57;;;;;;;;;;;;;;;15.09;51.15;101118.56;4471336;32;33708;-63
2022/11/13 08:51:43;;;;;;;;;;;;;;;15.23;50.79;101120.25;4468509;32;32832;-62
2022/11/13 08:54:29;;;;;;;;;;;;;;;15.30;50.30;101126.91;4469064;32;32671;-63
2022/11/13 08:57:14;;;;;;;;;;;;;;;15.10;50.29;101131.03;4472571;32;34182;-62
2022/11/13 09:00:01;;;;;;;;;;;;;;;15.14;50.27;101115.50;4468075;32;34103;-62
2022/11/13 09:02:46;;;;;;;;;;;;;;;15.07;50.97;101116.94;4465631;32;34286;-63
2022/11/13 09:05:32;;;;;;;;;;;;;;;15.09;51.26;101118.56;4470859;32;34249;-63
2022/11/13 09:08:17;;;;;;;;;;;;;;;15.28;51.34;101123.47;4467314;32;34313;-63
2022/11/13 09:11:04;;;;;;;;;;;;;;;15.26;51.19;101129.94;4467531;32;33691;-63
2022/11/13 09:13:49;;;;;;;;;;;;;;;14.88;51.79;101129.00;4439477;32;908301;-63
2022/11/13 09:16:38;;;;;;;;;;;;;;;15.28;51.61;101125.28;4481934;32;34854;-64
2022/11/13 09:19:24;;;;;;;;;;;;;;;15.70;50.72;101124.03;4473483;32;34049;-64
2022/11/13 09:22:10;;;;;;;;;;;;;;;15.79;50.35;101117.94;4469123;32;34634;-62
2022/11/13 09:24:56;;;;;;;;;;;;;;;16.01;49.68;101124.41;4465860;32;33081;-63
2022/11/13 09:27:41;;;;;;;;;;;;;;;16.39;49.46;101121.47;4466189;32;32614;-65
2022/11/13 09:30:28;;;;;;;;;;;;;;;16.74;48.60;101123.28;4466557;32;34044;-64
2022/11/13 09:33:14;;;;;;;;;;;;;;;16.93;48.12;101126.28;4469999;32;34085;-64
2022/11/13 09:36:00;;;;;;;;;;;;;;;17.31;47.39;101111.50;4465890;32;33356;-64
2022/11/13 09:38:45;;;;;;;;;;;;;;;17.80;46.32;101120.16;4470128;32;35271;-63
2022/11/13 09:41:37;;;;;;;;;;;;;;;18.11;45.95;101111.19;4467205;32;35456;-63
2022/11/13 09:44:41;;;;;;;;;;;;;;;19.45;42.69;101102.19;4467501;32;33748;-63
2022/11/13 09:47:29;;;;;;;;;;;;;;;19.77;41.76;101097.47;4474709;32;34448;-63
2022/11/13 09:50:17;;;;;;;;;;;;;;;20.31;40.76;101094.28;4471330;32;34786;-64
2022/11/13 09:53:02;;;;;;;;;;;;;;;20.02;41.99;101100.59;4463626;32;33228;-62
2022/11/13 09:55:55;;;;;;;;;;;;;;;19.37;42.75;101092.03;4462600;32;34392;-64
2022/11/13 09:58:41;;;;;;;;;;;;;;;19.29;42.99;101083.72;4455859;32;33658;-62
2022/11/13 10:01:32;;;;;;;;;;;;;;;19.17;43.51;101087.56;4469609;32;34354;-62
2022/11/13 10:04:22;;;;;;;;;;;;;;;19.38;42.87;101085.59;4464842;32;34244;-61
2022/11/13 10:07:11;;;;;;;;;;;;;;;18.90;44.38;101083.59;4463706;32;34313;-62
2022/11/13 10:10:00;;;;;;;;;;;;;;;19.94;42.16;101073.28;4466177;32;33299;-62
2022/11/13 10:12:46;;;;;;;;;;;;;;;20.77;41.07;101071.75;4468567;32;35170;-61
2022/11/13 10:15:31;;;;;;;;;;;;;;;20.87;40.88;101066.28;4467937;32;32978;-62
2022/11/13 10:18:19;;;;;;;;;;;;;;;20.74;40.99;101063.00;4476529;32;33525;-61
2022/11/13 10:21:24;;;;;;;;;;;;;;;20.41;42.04;101052.47;4457606;32;34439;-61
2022/11/13 10:24:21;;;;;;;;;;;;;;;20.50;41.51;101047.16;4455739;32;32884;-60
2022/11/13 10:27:07;;;;;;;;;;;;;;;20.32;42.46;101049.78;4465108;32;34349;-61
2022/11/13 10:29:53;;;;;;;;;;;;;;;19.64;44.13;101041.66;4466767;32;34456;-63
2022/11/13 10:32:39;;;;;;;;;;;;;;;19.32;45.08;101040.00;4481758;32;33456;-63
2022/11/13 10:35:37;;;;;;;;;;;;;;;19.29;45.73;101040.28;4468183;32;32896;-63
2022/11/13 10:38:38;;;;;;;;;;;;;;;19.38;45.00;101041.31;4468106;32;34705;-64
2022/11/13 10:41:23;;;;;;;;;;;;;;;18.53;47.18;101037.16;4466913;32;34119;-64
2022/11/13 10:44:19;;;;;;;;;;;;;;;18.21;47.82;101034.53;4467491;32;33031;-64
2022/11/13 10:47:25;;;;;;;;;;;;;;;18.21;48.30;101019.13;4471653;32;34928;-62
2022/11/13 10:50:31;;;;;;;;;;;;;;;18.28;47.98;101031.16;4482017;32;35779;-63
2022/11/13 10:53:17;;;;;;;;;;;;;;;17.39;50.38;101027.81;4481282;32;33831;-63
2022/11/13 10:56:11;;;;;;;;;;;;;;;17.60;49.95;101016.22;4469350;32;33538;-63
2022/11/13 10:59:10;;;;;;;;;;;;;;;17.87;49.18;101008.47;4484229;32;32703;-64
2022/11/13 11:02:06;;;;;;;;;;;;;;;17.85;49.64;101015.88;4473830;32;33903;-64
2022/11/13 11:05:05;;;;;;;;;;;;;;;17.85;49.66;101007.75;4478809;32;34999;-64
2022/11/13 11:07:54;;;;;;;;;;;;;;;17.87;49.58;101004.91;4478645;32;33046;-61
2022/11/13 11:12:14;;;;;;;;;;;;;;;17.26;51.37;101000.06;4462422;32;32972;-62
2022/11/13 11:13:47;;;;;;;;;;;;;;;17.41;51.36;100996.09;4473524;32;33017;-60
2022/11/13 11:16:32;;;;;;;;;;;;;;;17.17;51.84;100990.91;4470255;32;34923;-61
2022/11/13 11:19:19;;;;;;;;;;;;;;;17.43;51.43;100985.13;4478110;32;33338;-59
2022/11/13 11:22:08;;;;;;;;;;;;;;;17.31;51.82;100980.78;4467755;32;34058;-60
2022/11/13 11:24:55;;;;;;;;;;;;;;;16.96;52.21;100989.94;4461972;32;34470;-61
2022/11/13 11:27:41;;;;;;;;;;;;;;;16.73;53.49;100983.69;4466025;32;34046;-60
2022/11/13 11:30:28;;;;;;;;;;;;;;;17.11;52.04;100985.09;4471487;32;32162;-60
2022/11/13 11:33:16;;;;;;;;;;;;;;;17.10;52.37;100983.38;4469238;32;33998;-61
2022/11/13 11:36:04;;;;;;;;;;;;;;;17.32;51.46;100979.78;4457974;32;34220;-61
2022/11/13 11:38:54;;;;;;;;;;;;;;;17.36;51.26;100979.37;4471776;32;34084;-62
2022/11/13 11:41:45;;;;;;;;;;;;;;;16.69;52.86;100982.19;4463363;32;31977;-60
2022/11/13 11:44:50;;;;;;;;;;;;;;;17.20;51.84;100971.66;4463921;32;34930;-61
2022/11/13 11:47:35;;;;;;;;;;;;;;;16.81;53.13;100964.16;4468592;32;34142;-60
2022/11/13 11:50:42;;;;;;;;;;;;;;;17.21;52.07;100959.88;4464552;32;34408;-61
2022/11/13 11:53:33;;;;;;;;;;;;;;;17.13;51.97;100961.50;4473710;31;32161;-59
2022/11/13 11:56:22;;;;;;;;;;;;;;;17.15;51.73;100954.97;4480785;32;35047;-60
2022/11/13 11:59:10;;;;;;;;;;;;;;;16.87;51.74;100952.84;4479131;32;33268;-60
2022/11/13 12:01:56;;;;;;;;;;;;;;;16.72;53.05;100952.19;4472386;32;34659;-61
2022/11/13 12:04:57;;;;;;;;;;;;;;;17.22;51.68;100942.66;4468839;32;33386;-63
2022/11/13 12:07:46;;;;;;;;;;;;;;;16.72;54.13;100938.69;4477114;32;32832;-60
2022/11/13 12:10:35;;;;;;;;;;;;;;;16.67;53.76;100936.38;4477993;32;34509;-61
2022/11/13 12:13:27;;;;;;;;;;;;;;;16.97;53.06;100919.50;4483460;32;34150;-60
2022/11/13 12:16:22;;;;;;;;;;;;;;;16.93;52.56;100917.19;4444596;32;31843;-61
2022/11/13 12:19:14;;;;;;;;;;;;;;;16.51;53.62;100914.28;4477660;32;34164;-61
2022/11/13 12:22:15;;;;;;;;;;;;;;;17.23;52.13;100908.34;4462735;32;34742;-61
2022/11/13 12:25:04;;;;;;;;;;;;;;;16.79;52.41;100898.50;4472147;32;34684;-61
2022/11/13 12:27:55;;;;;;;;;;;;;;;15.88;54.80;100900.38;4478848;32;33418;-61
2022/11/13 12:31:00;;;;;;;;;;;;;;;16.71;52.56;100897.28;4460480;32;32448;-63
2022/11/13 12:33:50;;;;;;;;;;;;;;;16.71;52.32;100888.31;4449231;32;32679;-63
2022/11/13 12:36:36;;;;;;;;;;;;;;;15.35;55.42;100892.75;4461244;32;35204;-64
2022/11/13 12:39:37;;;;;;;;;;;;;;;16.04;53.47;100883.81;4460653;32;34112;-63
2022/11/13 12:42:28;;;;;;;;;;;;;;;15.93;53.78;100886.53;4468718;32;32997;-62
2022/11/13 12:45:29;;;;;;;;;;;;;;;15.75;53.82;100878.88;4470784;32;34311;-63
2022/11/13 12:48:14;;;;;;;;;;;;;;;15.34;55.24;100873.97;4470929;32;34623;-62
2022/11/13 12:51:02;;;;;;;;;;;;;;;14.97;55.96;100874.09;4469803;32;31401;-61
2022/11/13 12:53:48;;;;;;;;;;;;;;;15.19;55.23;100873.34;4455791;32;35374;-62
2022/11/13 12:56:34;;;;;;;;;;;;;;;14.99;55.75;100871.25;4466558;32;34041;-62
2022/11/13 12:59:21;;;;;;;;;;;;;;;15.10;55.20;100874.03;4454713;32;34795;-62
2022/11/13 13:02:20;;;;;;;;;;;;;;;14.90;56.27;100879.09;4466634;32;33384;-62
2022/11/13 13:05:21;;;;;;;;;;;;;;;15.04;55.45;100872.66;4473275;32;33745;-60
2022/11/13 13:08:10;;;;;;;;;;;;;;;14.97;55.59;100870.53;4468806;32;34339;-62
2022/11/13 13:11:03;;;;;;;;;;;;;;;14.73;56.30;100865.13;4460566;32;33987;-63
2022/11/13 13:14:03;;;;;;;;;;;;;;;15.56;54.01;100859.69;4476040;32;34247;-61
2022/11/13 13:16:49;;;;;;;;;;;;;;;14.19;56.96;100859.12;4468507;32;34152;-60
2022/11/13 13:19:34;;;;;;;;;;;;;;;15.17;54.98;100859.09;4475379;32;34338;-60
2022/11/13 13:22:25;;;;;;;;;;;;;;;15.43;53.96;100857.09;4474042;32;33008;-63
2022/11/13 13:25:25;;;;;;;;;;;;;;;15.52;53.52;100861.78;4469081;32;32976;-62
2022/11/13 13:28:18;;;;;;;;;;;;;;;14.98;55.01;100864.16;4469791;32;34051;-63
2022/11/13 13:31:06;;;;;;;;;;;;;;;15.31;54.33;100863.41;4470703;32;33223;-62
2022/11/13 13:34:14;;;;;;;;;;;;;;;15.69;53.33;100859.63;4456303;32;33782;-62
2022/11/13 13:37:15;;;;;;;;;;;;;;;15.42;54.75;100854.53;4456339;32;32678;-61
2022/11/13 13:40:20;;;;;;;;;;;;;;;14.84;56.41;100852.59;4469585;32;33930;-62
2022/11/13 13:43:08;;;;;;;;;;;;;;;15.26;54.90;100857.53;4468049;32;34086;-61
2022/11/13 13:46:12;;;;;;;;;;;;;;;14.45;57.41;100842.91;4473893;32;34365;-62
2022/11/13 13:49:01;;;;;;;;;;;;;;;15.35;55.11;100854.13;4477064;32;33678;-63
2022/11/13 13:51:48;;;;;;;;;;;;;;;14.94;55.62;100841.97;4460584;32;34104;-63
2022/11/13 13:54:34;;;;;;;;;;;;;;;15.50;54.21;100841.28;4456270;32;32826;-62
2022/11/13 13:57:20;;;;;;;;;;;;;;;15.54;53.49;100838.25;4457790;32;34268;-63
2022/11/13 14:00:13;;;;;;;;;;;;;;;15.60;53.78;100839.56;4474623;32;33022;-62
2022/11/13 14:02:58;;;;;;;;;;;;;;;15.38;54.24;100832.31;4463156;32;32794;-61
2022/11/13 14:05:44;;;;;;;;;;;;;;;15.58;54.15;100839.72;4469696;32;33164;-63
2022/11/13 14:08:29;;;;;;;;;;;;;;;15.46;54.79;100840.66;4469851;32;34053;-61
2022/11/13 14:11:20;;;;;;;;;;;;;;;15.45;54.82;100835.41;4467624;32;34083;-61
2022/11/13 14:14:06;;;;;;;;;;;;;;;15.29;55.33;100843.81;4477604;32;34261;-63
2022/11/13 14:16:53;;;;;;;;;;;;;;;15.65;54.69;100844.63;4475074;32;34374;-61
2022/11/13 14:19:39;;;;;;;;;;;;;;;15.58;54.86;100839.72;4474326;32;34704;-62
2022/11/13 14:22:25;;;;;;;;;;;;;;;15.66;55.37;100843.63;4472556;32;32246;-63
2022/11/13 14:25:20;;;;;;;;;;;;;;;15.20;56.33;100845.38;4458721;32;32886;-62